createdAt,value
2022-09-21T00:00:48.559Z,9.72
2022-09-21T00:01:51.004Z,9.68
2022-09-21T00:02:55.776Z,9.68
2022-09-21T00:04:01.152Z,9.65
2022-09-21T00:05:03.318Z,9.66
2022-09-21T00:06:07.529Z,9.66
2022-09-21T00:07:10.506Z,9.63
2022-09-21T00:08:13.657Z,9.62
2022-09-21T00:09:15.757Z,9.54
2022-09-21T00:10:20.344Z,9.56
2022-09-21T00:11:25.474Z,9.60
2022-09-21T00:12:27.400Z,9.63
2022-09-21T00:13:29.638Z,9.57
2022-09-21T00:14:31.794Z,9.58
2022-09-21T00:15:34.219Z,9.54
2022-09-21T00:16:36.495Z,9.53
2022-09-21T00:17:38.591Z,9.53
2022-09-21T00:18:40.860Z,9.55
2022-09-21T00:19:42.876Z,9.52
2022-09-21T00:20:44.854Z,9.53
2022-09-21T00:21:47.242Z,9.50
2022-09-21T00:22:49.415Z,9.48
2022-09-21T00:23:51.349Z,9.48
2022-09-21T00:24:53.066Z,9.52
2022-09-21T00:26:07.418Z,9.54
2022-09-21T00:27:09.358Z,9.51
2022-09-21T00:28:11.294Z,9.46
2022-09-21T00:29:13.216Z,9.47
2022-09-21T00:30:15.760Z,9.43
2022-09-21T00:31:17.699Z,9.46
2022-09-21T00:32:19.541Z,9.43
2022-09-21T00:33:21.394Z,9.46
2022-09-21T00:34:23.353Z,9.49
2022-09-21T00:35:25.429Z,9.49
2022-09-21T00:36:27.997Z,9.53
2022-09-21T00:37:30.363Z,9.50
2022-09-21T00:38:33.563Z,9.43
2022-09-21T00:39:35.517Z,9.42
2022-09-21T00:40:37.626Z,9.46
2022-09-21T00:41:39.626Z,9.47
2022-09-21T00:42:41.702Z,9.45
2022-09-21T00:43:50.246Z,9.43
2022-09-21T00:44:52.721Z,9.37
2022-09-21T00:46:04.645Z,9.40
2022-09-21T00:47:13.155Z,9.47
2022-09-21T00:48:15.414Z,9.49
2022-09-21T00:49:17.896Z,9.56
2022-09-21T00:50:24.933Z,9.51
2022-09-21T00:51:27.186Z,9.51
2022-09-21T00:52:32.779Z,9.54
2022-09-21T00:53:37.063Z,9.49
2022-09-21T00:54:42.714Z,9.48
2022-09-21T00:55:48.376Z,9.46
2022-09-21T00:56:50.716Z,9.45
2022-09-21T00:57:56.243Z,9.47
2022-09-21T00:58:58.298Z,9.47
2022-09-21T01:00:03.841Z,9.53
2022-09-21T01:01:06.058Z,9.54
2022-09-21T01:02:08.475Z,9.56
2022-09-21T01:03:13.345Z,9.58
2022-09-21T01:04:16.077Z,9.51
2022-09-21T01:05:18.132Z,9.53
2022-09-21T01:06:20.815Z,9.52
2022-09-21T01:07:26.404Z,9.47
2022-09-21T01:08:29.224Z,9.39
2022-09-21T01:09:32.156Z,9.39
2022-09-21T01:11:00.090Z,9.41
2022-09-21T01:12:17.593Z,9.46
2022-09-21T01:13:45.558Z,9.50
2022-09-21T01:16:16.881Z,9.68
2022-09-21T01:17:48.451Z,9.55
2022-09-21T01:20:22.899Z,9.70
2022-09-21T01:21:34.445Z,9.61
2022-09-21T01:23:00.976Z,9.65
2022-09-21T01:24:27.874Z,9.67
2022-09-21T01:25:42.721Z,9.70
2022-09-21T01:27:09.857Z,9.75
2022-09-21T01:28:21.436Z,9.80
2022-09-21T01:29:36.374Z,9.69
2022-09-21T01:30:45.673Z,9.77
2022-09-21T01:32:05.162Z,9.81
2022-09-21T01:33:17.093Z,9.75
2022-09-21T01:34:37.604Z,9.79
2022-09-21T01:35:46.252Z,9.69
2022-09-21T01:36:51.484Z,9.67
2022-09-21T01:37:59.871Z,9.64
2022-09-21T01:39:08.218Z,9.68
2022-09-21T01:40:24.181Z,9.72
2022-09-21T01:41:29.919Z,9.70
2022-09-21T01:42:35.066Z,9.64
2022-09-21T01:43:43.457Z,9.72
2022-09-21T01:44:47.512Z,9.66
2022-09-21T01:45:53.087Z,9.68
2022-09-21T01:46:58.256Z,9.75
2022-09-21T01:48:01.067Z,9.81
2022-09-21T01:49:06.775Z,9.77
2022-09-21T01:50:11.300Z,9.88
2022-09-21T01:51:16.027Z,9.89
2022-09-21T01:52:24.378Z,9.86
2022-09-21T01:53:42.122Z,9.78
2022-09-21T01:54:51.831Z,9.78
2022-09-21T01:55:57.414Z,9.79
2022-09-21T01:57:05.869Z,9.85
2022-09-21T01:58:14.658Z,9.78
2022-09-21T01:59:23.196Z,9.77
2022-09-21T02:00:27.023Z,9.78
2022-09-21T02:01:32.661Z,9.73
2022-09-21T02:02:38.316Z,9.70
2022-09-21T02:03:43.926Z,9.66
2022-09-21T02:04:46.027Z,9.64
2022-09-21T02:05:48.168Z,9.64
2022-09-21T02:06:51.169Z,9.59
2022-09-21T02:07:54.941Z,9.62
2022-09-21T02:08:57.263Z,9.64
2022-09-21T02:10:00.931Z,9.72
2022-09-21T02:11:05.005Z,9.82
2022-09-21T02:12:07.440Z,9.84
2022-09-21T02:13:10.611Z,9.86
2022-09-21T02:14:16.159Z,9.82
2022-09-21T02:15:21.839Z,9.87
2022-09-21T02:16:46.156Z,9.86
2022-09-21T02:17:54.581Z,9.77
2022-09-21T02:19:15.507Z,9.72
2022-09-21T02:20:21.394Z,9.70
2022-09-21T02:21:39.257Z,9.65
2022-09-21T02:23:03.165Z,9.66
2022-09-21T02:25:29.147Z,9.84
2022-09-21T02:26:37.978Z,9.77
2022-09-21T02:27:58.866Z,9.77
2022-09-21T02:29:25.554Z,9.83
2022-09-21T02:30:29.515Z,9.86
2022-09-21T02:31:53.168Z,9.91
2022-09-21T02:33:15.311Z,9.93
2022-09-21T02:34:35.481Z,9.82
2022-09-21T02:35:47.217Z,9.69
2022-09-21T02:36:57.166Z,9.75
2022-09-21T02:38:06.363Z,9.75
2022-09-21T02:39:17.645Z,9.75
2022-09-21T02:40:26.426Z,9.74
2022-09-21T02:41:32.182Z,9.74
2022-09-21T02:42:38.704Z,9.69
2022-09-21T02:44:01.344Z,9.66
2022-09-21T02:45:12.987Z,9.67
2022-09-21T02:46:28.000Z,9.70
2022-09-21T02:47:40.022Z,9.67
2022-09-21T02:48:52.662Z,9.62
2022-09-21T02:50:01.202Z,9.58
2022-09-21T02:51:06.856Z,9.46
2022-09-21T02:52:12.441Z,9.51
2022-09-21T02:53:18.142Z,9.47
2022-09-21T02:54:23.829Z,9.49
2022-09-21T02:55:27.132Z,9.53
2022-09-21T02:56:31.890Z,9.55
2022-09-21T02:57:35.774Z,9.59
2022-09-21T02:58:42.374Z,9.56
2022-09-21T02:59:44.652Z,9.54
2022-09-21T03:00:47.022Z,9.56
2022-09-21T03:01:50.660Z,9.53
2022-09-21T03:02:52.747Z,9.41
2022-09-21T03:03:55.731Z,9.43
2022-09-21T03:04:58.806Z,9.45
2022-09-21T03:06:01.660Z,9.35
2022-09-21T03:07:03.686Z,9.34
2022-09-21T03:08:06.620Z,9.36
2022-09-21T03:09:08.671Z,9.41
2022-09-21T03:10:11.686Z,9.40
2022-09-21T03:11:18.157Z,9.45
2022-09-21T03:12:20.381Z,9.41
2022-09-21T03:13:22.776Z,9.38
2022-09-21T03:14:25.200Z,9.42
2022-09-21T03:15:27.237Z,9.40
2022-09-21T03:16:29.375Z,9.35
2022-09-21T03:17:31.532Z,9.40
2022-09-21T03:18:33.833Z,9.43
2022-09-21T03:19:35.667Z,9.39
2022-09-21T03:20:45.367Z,9.38
2022-09-21T03:21:47.292Z,9.38
2022-09-21T03:22:49.109Z,9.45
2022-09-21T03:23:51.092Z,9.46
2022-09-21T03:24:52.969Z,9.41
2022-09-21T03:25:55.453Z,9.43
2022-09-21T03:26:57.397Z,9.40
2022-09-21T03:27:59.571Z,9.41
2022-09-21T03:29:01.887Z,9.46
2022-09-21T03:30:06.840Z,9.40
2022-09-21T03:31:09.345Z,9.41
2022-09-21T03:32:11.999Z,9.40
2022-09-21T03:33:13.994Z,9.41
2022-09-21T03:34:15.987Z,9.30
2022-09-21T03:35:19.294Z,9.35
2022-09-21T03:36:21.917Z,9.32
2022-09-21T03:37:23.696Z,9.32
2022-09-21T03:38:26.030Z,9.37
2022-09-21T03:39:28.007Z,9.41
2022-09-21T03:40:30.762Z,9.42
2022-09-21T03:41:32.841Z,9.48
2022-09-21T03:42:34.696Z,9.47
2022-09-21T03:43:36.554Z,9.45
2022-09-21T03:44:38.577Z,9.45
2022-09-21T03:45:40.985Z,9.42
2022-09-21T03:46:43.699Z,9.43
2022-09-21T03:47:46.632Z,9.39
2022-09-21T03:48:48.574Z,9.39
2022-09-21T03:49:50.506Z,9.35
2022-09-21T03:50:53.274Z,9.35
2022-09-21T03:51:55.249Z,9.35
2022-09-21T03:52:57.913Z,9.35
2022-09-21T03:53:59.915Z,9.39
2022-09-21T03:55:01.905Z,9.38
2022-09-21T03:56:04.272Z,9.41
2022-09-21T03:57:06.095Z,9.46
2022-09-21T03:58:08.986Z,9.49
2022-09-21T03:59:14.109Z,9.45
2022-09-21T04:00:17.431Z,9.43
2022-09-21T04:01:20.102Z,9.43
2022-09-21T04:02:22.113Z,9.37
2022-09-21T04:03:27.883Z,9.41
2022-09-21T04:04:30.464Z,9.47
2022-09-21T04:05:32.490Z,9.51
2022-09-21T04:06:34.495Z,9.49
2022-09-21T04:07:37.240Z,9.48
2022-09-21T04:08:39.964Z,9.46
2022-09-21T04:09:42.422Z,9.40
2022-09-21T04:10:45.517Z,9.39
2022-09-21T04:11:47.626Z,9.39
2022-09-21T04:12:49.425Z,9.40
2022-09-21T04:13:53.031Z,9.38
2022-09-21T04:14:54.965Z,9.45
2022-09-21T04:15:56.933Z,9.51
2022-09-21T04:16:58.994Z,9.48
2022-09-21T04:18:00.946Z,9.47
2022-09-21T04:19:04.020Z,9.43
2022-09-21T04:20:07.689Z,9.43
2022-09-21T04:21:09.627Z,9.42
2022-09-21T04:22:12.119Z,9.36
2022-09-21T04:23:14.141Z,9.38
2022-09-21T04:24:18.212Z,9.36
2022-09-21T04:25:23.020Z,9.36
2022-09-21T04:26:33.419Z,9.35
2022-09-21T04:27:37.287Z,9.40
2022-09-21T04:28:41.041Z,9.47
2022-09-21T04:29:44.950Z,9.52
2022-09-21T04:30:53.790Z,9.44
2022-09-21T04:31:57.783Z,9.47
2022-09-21T04:33:01.819Z,9.45
2022-09-21T04:34:06.393Z,9.45
2022-09-21T04:35:10.562Z,9.46
2022-09-21T04:36:15.786Z,9.44
2022-09-21T04:37:19.393Z,9.49
2022-09-21T04:38:23.330Z,9.46
2022-09-21T04:39:27.492Z,9.38
2022-09-21T04:40:31.339Z,9.33
2022-09-21T04:41:33.398Z,9.33
2022-09-21T04:42:37.018Z,9.37
2022-09-21T04:43:41.122Z,9.29
2022-09-21T04:44:44.132Z,9.34
2022-09-21T04:45:46.646Z,9.31
2022-09-21T04:46:49.022Z,9.34
2022-09-21T04:47:50.845Z,9.35
2022-09-21T04:48:53.876Z,9.33
2022-09-21T04:49:57.715Z,9.37
2022-09-21T04:50:59.494Z,9.43
2022-09-21T04:52:01.556Z,9.39
2022-09-21T04:53:03.899Z,9.40
2022-09-21T04:54:06.358Z,9.43
2022-09-21T04:55:08.436Z,9.42
2022-09-21T04:56:13.909Z,9.42
2022-09-21T04:57:16.290Z,9.42
2022-09-21T04:58:22.441Z,9.38
2022-09-21T04:59:22.219Z,9.41
2022-09-21T05:00:24.257Z,9.43
2022-09-21T05:01:27.630Z,9.36
2022-09-21T05:02:29.514Z,9.30
2022-09-21T05:03:31.465Z,9.29
2022-09-21T05:04:33.327Z,9.31
2022-09-21T05:05:35.099Z,9.35
2022-09-21T05:06:36.943Z,9.36
2022-09-21T05:07:38.967Z,9.40
2022-09-21T05:08:40.952Z,9.40
2022-09-21T05:09:43.041Z,9.42
2022-09-21T05:10:45.460Z,9.48
2022-09-21T05:11:47.239Z,9.53
2022-09-21T05:12:49.121Z,9.56
2022-09-21T05:13:50.829Z,9.55
2022-09-21T05:14:52.712Z,9.58
2022-09-21T05:15:54.672Z,9.66
2022-09-21T05:16:58.724Z,9.66
2022-09-21T05:18:00.354Z,9.62
2022-09-21T05:19:03.004Z,9.67
2022-09-21T05:20:05.768Z,9.59
2022-09-21T05:21:11.614Z,9.59
2022-09-21T05:22:14.773Z,9.65
2022-09-21T05:23:16.955Z,9.67
2022-09-21T05:24:19.394Z,9.67
2022-09-21T05:25:21.313Z,9.63
2022-09-21T05:26:24.127Z,9.58
2022-09-21T05:27:26.202Z,9.54
2022-09-21T05:28:28.789Z,9.47
2022-09-21T05:29:31.730Z,9.38
2022-09-21T05:30:34.891Z,9.45
2022-09-21T05:31:47.993Z,9.50
2022-09-21T05:32:59.896Z,9.40
2022-09-21T05:34:36.207Z,9.42
2022-09-21T05:35:57.147Z,9.47
2022-09-21T05:37:36.467Z,9.38
2022-09-21T05:38:38.758Z,9.36
2022-09-21T05:39:41.425Z,9.48
2022-09-21T05:40:44.874Z,9.42
2022-09-21T05:41:47.927Z,9.45
2022-09-21T05:42:50.463Z,9.48
2022-09-21T05:43:53.295Z,9.51
2022-09-21T05:44:55.805Z,9.58
2022-09-21T05:46:07.373Z,9.62
2022-09-21T05:47:15.967Z,9.64
2022-09-21T05:48:24.986Z,9.68
2022-09-21T05:49:51.953Z,9.48
2022-09-21T05:52:23.130Z,9.46
2022-09-21T05:54:04.960Z,9.36
2022-09-21T05:55:30.802Z,9.42
2022-09-21T05:56:59.287Z,9.49
2022-09-21T05:58:19.727Z,9.45
2022-09-21T05:59:37.403Z,9.47
2022-09-21T06:00:58.148Z,9.50
2022-09-21T06:02:16.755Z,9.46
2022-09-21T06:03:25.195Z,9.38
2022-09-21T06:04:28.349Z,9.44
2022-09-21T06:05:30.605Z,9.38
2022-09-21T06:06:33.602Z,9.38
2022-09-21T06:07:35.465Z,9.38
2022-09-21T06:08:37.417Z,9.46
2022-09-21T06:09:43.046Z,9.37
2022-09-21T06:10:43.481Z,9.39
2022-09-21T06:11:45.379Z,9.47
2022-09-21T06:12:47.281Z,9.48
2022-09-21T06:13:48.991Z,9.56
2022-09-21T06:14:52.786Z,9.54
2022-09-21T06:15:55.805Z,9.57
2022-09-21T06:16:57.922Z,9.58
2022-09-21T06:18:00.028Z,9.63
2022-09-21T06:19:01.684Z,9.69
2022-09-21T06:20:05.334Z,9.77
2022-09-21T06:21:09.296Z,9.84
2022-09-21T06:22:11.346Z,9.81
2022-09-21T06:23:13.814Z,9.75
2022-09-21T06:24:16.561Z,9.77
2022-09-21T06:25:18.740Z,9.78
2022-09-21T06:26:20.628Z,9.81
2022-09-21T06:27:22.414Z,9.75
2022-09-21T06:28:24.879Z,9.77
2022-09-21T06:29:26.583Z,9.83
2022-09-21T06:30:28.530Z,9.86
2022-09-21T06:31:30.545Z,9.91
2022-09-21T06:32:32.826Z,9.93
2022-09-21T06:33:35.982Z,10.02
2022-09-21T06:34:38.297Z,10.06
2022-09-21T06:35:42.391Z,10.16
2022-09-21T06:36:44.581Z,10.29
2022-09-21T06:37:46.298Z,10.38
2022-09-21T06:38:47.923Z,10.45
2022-09-21T06:39:49.702Z,10.47
2022-09-21T06:40:52.990Z,10.47
2022-09-21T06:41:55.450Z,10.50
2022-09-21T06:42:59.250Z,10.54
2022-09-21T06:44:02.281Z,10.52
2022-09-21T06:45:05.606Z,10.56
2022-09-21T06:46:08.321Z,10.60
2022-09-21T06:47:10.278Z,10.65
2022-09-21T06:48:12.006Z,10.66
2022-09-21T06:49:15.031Z,10.77
2022-09-21T06:50:17.618Z,10.78
2022-09-21T06:51:21.598Z,10.75
2022-09-21T06:52:24.052Z,10.74
2022-09-21T06:53:28.057Z,10.86
2022-09-21T06:54:30.442Z,10.80
2022-09-21T06:55:32.341Z,10.76
2022-09-21T06:56:34.749Z,10.73
2022-09-21T06:57:36.764Z,10.50
2022-09-21T06:58:38.512Z,10.49
2022-09-21T06:59:40.798Z,10.58
2022-09-21T07:00:42.920Z,10.63
2022-09-21T07:01:44.930Z,10.66
2022-09-21T07:02:46.913Z,10.54
2022-09-21T07:03:50.667Z,10.54
2022-09-21T07:04:52.494Z,10.59
2022-09-21T07:05:54.801Z,10.62
2022-09-21T07:06:57.227Z,10.67
2022-09-21T07:07:59.401Z,10.65
2022-09-21T07:10:07.721Z,10.66
2022-09-21T07:11:11.756Z,10.70
2022-09-21T07:12:13.795Z,10.71
2022-09-21T07:13:15.770Z,10.71
2022-09-21T07:14:17.512Z,10.76
2022-09-21T07:15:20.550Z,10.78
2022-09-21T07:16:22.462Z,10.76
2022-09-21T07:17:25.078Z,10.81
2022-09-21T07:18:27.470Z,10.85
2022-09-21T07:19:29.350Z,10.90
2022-09-21T07:20:31.195Z,10.75
2022-09-21T07:21:33.054Z,10.57
2022-09-21T07:22:36.061Z,10.57
2022-09-21T07:23:38.703Z,10.54
2022-09-21T07:24:40.502Z,10.44
2022-09-21T07:25:43.852Z,10.51
2022-09-21T07:26:45.966Z,10.45
2022-09-21T07:27:47.627Z,10.33
2022-09-21T07:28:49.470Z,10.33
2022-09-21T07:29:52.020Z,10.39
2022-09-21T07:30:54.384Z,10.43
2022-09-21T07:31:56.317Z,10.47
2022-09-21T07:32:58.200Z,10.55
2022-09-21T07:33:59.938Z,10.33
2022-09-21T07:35:01.775Z,10.33
2022-09-21T07:36:05.400Z,10.38
2022-09-21T07:37:07.440Z,10.33
2022-09-21T07:38:09.216Z,10.36
2022-09-21T07:39:11.067Z,10.43
2022-09-21T07:40:13.682Z,10.34
2022-09-21T07:41:15.556Z,10.36
2022-09-21T07:42:17.474Z,10.30
2022-09-21T07:43:19.250Z,10.45
2022-09-21T07:44:21.481Z,10.44
2022-09-21T07:45:23.316Z,10.50
2022-09-21T07:46:25.992Z,10.61
2022-09-21T07:47:28.026Z,10.32
2022-09-21T07:48:31.807Z,10.44
2022-09-21T07:49:33.725Z,10.47
2022-09-21T07:50:35.688Z,10.47
2022-09-21T07:51:37.325Z,10.37
2022-09-21T07:52:38.967Z,10.31
2022-09-21T07:53:42.712Z,10.51
2022-09-21T07:54:44.508Z,10.50
2022-09-21T07:55:46.318Z,10.57
2022-09-21T07:56:48.380Z,10.54
2022-09-21T07:57:50.825Z,10.20
2022-09-21T07:58:53.936Z,10.34
2022-09-21T07:59:56.041Z,10.50
2022-09-21T08:00:58.755Z,10.46
2022-09-21T08:02:00.699Z,10.59
2022-09-21T08:03:02.972Z,10.56
2022-09-21T08:04:07.153Z,10.61
2022-09-21T08:05:09.206Z,10.79
2022-09-21T08:06:11.691Z,10.79
2022-09-21T08:07:13.595Z,10.75
2022-09-21T08:08:16.919Z,10.52
2022-09-21T08:09:18.867Z,10.39
2022-09-21T08:10:20.812Z,10.38
2022-09-21T08:11:24.051Z,10.35
2022-09-21T08:12:26.232Z,10.39
2022-09-21T08:13:28.147Z,10.52
2022-09-21T08:14:29.962Z,10.46
2022-09-21T08:15:48.761Z,10.41
2022-09-21T08:16:37.662Z,10.50
2022-09-21T08:17:40.231Z,10.52
2022-09-21T08:18:42.480Z,10.52
2022-09-21T08:19:44.347Z,10.48
2022-09-21T08:20:49.959Z,10.42
2022-09-21T08:21:57.160Z,10.43
2022-09-21T08:22:57.253Z,10.45
2022-09-21T08:23:59.053Z,10.36
2022-09-21T08:25:00.936Z,10.26
2022-09-21T08:26:04.558Z,10.30
2022-09-21T08:27:07.426Z,10.35
2022-09-21T08:28:10.105Z,10.28
2022-09-21T08:29:12.350Z,10.19
2022-09-21T08:30:18.404Z,10.15
2022-09-21T08:31:22.960Z,10.12
2022-09-21T08:32:49.504Z,10.22
2022-09-21T08:33:29.781Z,10.10
2022-09-21T08:34:32.974Z,10.22
2022-09-21T08:35:36.221Z,10.17
2022-09-21T08:36:38.164Z,10.24
2022-09-21T08:37:40.299Z,10.26
2022-09-21T08:38:42.086Z,10.31
2022-09-21T08:39:43.737Z,10.35
2022-09-21T08:40:48.824Z,10.31
2022-09-21T08:42:09.589Z,10.20
2022-09-21T08:43:16.139Z,10.14
2022-09-21T08:44:34.770Z,10.26
2022-09-21T08:45:45.473Z,10.30
2022-09-21T08:46:53.235Z,10.46
2022-09-21T08:47:59.459Z,10.55
2022-09-21T08:49:05.612Z,10.58
2022-09-21T08:50:11.330Z,10.68
2022-09-21T08:51:17.040Z,10.65
2022-09-21T08:52:23.119Z,10.70
2022-09-21T08:53:28.633Z,10.79
2022-09-21T08:54:52.033Z,10.80
2022-09-21T08:55:58.226Z,10.85
2022-09-21T08:57:06.317Z,10.81
2022-09-21T08:59:23.895Z,10.77
2022-09-21T09:00:28.995Z,10.78
2022-09-21T09:01:40.483Z,10.91
2022-09-21T09:02:55.713Z,11.04
2022-09-21T09:05:50.423Z,11.11
2022-09-21T09:06:59.384Z,11.06
2022-09-21T09:08:14.676Z,11.21
2022-09-21T09:09:52.468Z,11.35
2022-09-21T09:11:20.180Z,11.57
2022-09-21T09:12:40.739Z,11.87
2022-09-21T09:14:04.531Z,11.71
2022-09-21T09:15:22.420Z,11.70
2022-09-21T09:16:37.706Z,11.72
2022-09-21T09:17:46.435Z,11.72
2022-09-21T09:19:00.738Z,11.70
2022-09-21T09:20:06.358Z,11.52
2022-09-21T09:21:31.269Z,11.66
2022-09-21T09:22:33.537Z,11.75
2022-09-21T09:23:42.057Z,11.73
2022-09-21T09:24:49.821Z,11.79
2022-09-21T09:25:56.496Z,11.72
2022-09-21T09:27:05.890Z,11.55
2022-09-21T09:28:35.989Z,11.50
2022-09-21T09:29:51.573Z,11.57
2022-09-21T09:31:04.023Z,11.51
2022-09-21T09:32:12.863Z,11.45
2022-09-21T09:33:24.489Z,11.55
2022-09-21T09:34:32.776Z,11.52
2022-09-21T09:35:41.388Z,11.57
2022-09-21T09:36:58.382Z,11.47
2022-09-21T09:37:55.414Z,11.41
2022-09-21T09:39:03.974Z,11.48
2022-09-21T09:40:07.175Z,11.57
2022-09-21T09:41:30.790Z,11.62
2022-09-21T09:42:39.286Z,11.65
2022-09-21T09:43:50.573Z,11.87
2022-09-21T09:45:18.656Z,11.89
2022-09-21T09:46:37.740Z,11.92
2022-09-21T09:47:52.306Z,11.82
2022-09-21T09:49:19.563Z,11.74
2022-09-21T09:50:31.038Z,11.87
2022-09-21T09:51:33.368Z,11.98
2022-09-21T09:52:36.046Z,12.10
2022-09-21T09:53:38.316Z,12.22
2022-09-21T09:54:40.622Z,12.37
2022-09-21T09:55:51.753Z,12.45
2022-09-21T09:56:54.206Z,12.25
2022-09-21T09:57:57.104Z,12.25
2022-09-21T09:59:03.671Z,12.18
2022-09-21T10:00:07.624Z,12.24
2022-09-21T10:01:44.371Z,12.20
2022-09-21T10:02:58.112Z,12.22
2022-09-21T10:04:13.039Z,12.09
2022-09-21T10:05:24.536Z,11.82
2022-09-21T10:06:33.016Z,11.73
2022-09-21T10:07:38.510Z,11.76
2022-09-21T10:08:46.103Z,11.84
2022-09-21T10:09:47.921Z,11.94
2022-09-21T10:10:50.201Z,11.90
2022-09-21T10:11:54.788Z,11.86
2022-09-21T10:13:07.020Z,11.87
2022-09-21T10:14:11.924Z,11.91
2022-09-21T10:15:19.838Z,11.82
2022-09-21T10:16:23.225Z,11.82
2022-09-21T10:17:25.797Z,11.83
2022-09-21T10:18:40.308Z,11.80
2022-09-21T10:19:42.386Z,11.90
2022-09-21T10:20:53.887Z,11.83
2022-09-21T10:22:01.074Z,11.78
2022-09-21T10:23:03.798Z,11.71
2022-09-21T10:24:31.511Z,11.75
2022-09-21T10:25:39.505Z,11.81
2022-09-21T10:26:47.922Z,11.80
2022-09-21T10:27:51.845Z,11.70
2022-09-21T10:29:02.771Z,11.63
2022-09-21T10:30:08.689Z,11.62
2022-09-21T10:31:20.215Z,11.48
2022-09-21T10:33:45.961Z,11.57
2022-09-21T10:35:00.868Z,11.43
2022-09-21T10:36:03.578Z,11.45
2022-09-21T10:37:24.285Z,11.45
2022-09-21T10:38:26.529Z,11.53
2022-09-21T10:39:30.997Z,11.45
2022-09-21T10:40:37.933Z,11.41
2022-09-21T10:41:40.252Z,11.32
2022-09-21T10:42:42.763Z,11.32
2022-09-21T10:43:45.085Z,11.42
2022-09-21T10:44:50.315Z,11.40
2022-09-21T10:45:56.081Z,11.45
2022-09-21T10:47:01.863Z,11.23
2022-09-21T10:48:16.881Z,11.29
2022-09-21T10:49:23.032Z,11.37
2022-09-21T10:50:31.805Z,11.21
2022-09-21T10:51:33.801Z,11.21
2022-09-21T10:52:39.360Z,11.30
2022-09-21T10:53:45.814Z,11.41
2022-09-21T10:54:52.557Z,11.25
2022-09-21T10:56:22.624Z,11.23
2022-09-21T10:57:14.683Z,11.27
2022-09-21T10:58:16.727Z,11.22
2022-09-21T10:59:23.320Z,11.23
2022-09-21T11:00:28.665Z,11.19
2022-09-21T11:01:31.134Z,11.03
2022-09-21T11:02:36.769Z,11.10
2022-09-21T11:03:49.141Z,11.18
2022-09-21T11:04:55.080Z,11.13
2022-09-21T11:06:16.259Z,11.00
2022-09-21T11:07:30.724Z,10.88
2022-09-21T11:08:42.171Z,10.89
2022-09-21T11:09:56.774Z,10.76
2022-09-21T11:11:17.867Z,10.73
2022-09-21T11:12:23.411Z,10.54
2022-09-21T11:13:34.788Z,10.57
2022-09-21T11:14:46.330Z,10.59
2022-09-21T11:15:58.391Z,10.45
2022-09-21T11:17:19.687Z,10.46
2022-09-21T11:18:42.158Z,10.50
2022-09-21T11:19:50.924Z,10.49
2022-09-21T11:20:56.602Z,10.34
2022-09-21T11:22:11.247Z,10.33
2022-09-21T11:23:45.317Z,10.41
2022-09-21T11:25:09.928Z,10.52
2022-09-21T11:26:19.089Z,10.53
2022-09-21T11:27:37.610Z,10.49
2022-09-21T11:29:01.492Z,10.52
2022-09-21T11:30:13.339Z,10.54
2022-09-21T11:31:25.071Z,10.60
2022-09-21T11:32:50.825Z,10.61
2022-09-21T11:34:15.834Z,10.66
2022-09-21T11:35:24.361Z,10.69
2022-09-21T11:36:53.165Z,10.71
2022-09-21T11:38:14.076Z,10.79
2022-09-21T11:42:53.070Z,11.53
2022-09-21T11:44:21.471Z,11.27
2022-09-21T11:45:30.231Z,11.41
2022-09-21T11:46:48.925Z,11.53
2022-09-21T11:47:54.622Z,11.59
2022-09-21T11:49:03.885Z,11.54
2022-09-21T11:50:32.133Z,11.39
2022-09-21T11:51:41.257Z,11.57
2022-09-21T11:53:05.766Z,11.49
2022-09-21T11:54:45.003Z,11.57
2022-09-21T11:56:06.885Z,11.58
2022-09-21T11:57:36.692Z,11.55
2022-09-21T11:58:54.267Z,11.29
2022-09-21T12:00:05.113Z,11.43
2022-09-21T12:01:37.936Z,11.53
2022-09-21T12:02:52.863Z,11.44
2022-09-21T12:03:58.814Z,11.43
2022-09-21T12:05:26.619Z,11.53
2022-09-21T12:06:46.732Z,11.61
2022-09-21T12:08:19.505Z,11.70
2022-09-21T12:09:34.831Z,11.70
2022-09-21T12:10:44.252Z,11.38
2022-09-21T12:11:50.927Z,11.41
2022-09-21T12:12:59.362Z,11.39
2022-09-21T12:14:26.457Z,11.45
2022-09-21T12:15:48.440Z,11.56
2022-09-21T12:18:31.243Z,11.58
2022-09-21T12:21:11.411Z,11.60
2022-09-21T12:22:18.247Z,11.49
2022-09-21T12:23:30.993Z,11.56
2022-09-21T12:24:36.496Z,11.57
2022-09-21T12:25:41.985Z,11.48
2022-09-21T12:26:56.841Z,11.55
2022-09-21T12:28:29.729Z,11.42
2022-09-21T12:29:35.922Z,11.44
2022-09-21T12:30:41.255Z,11.51
2022-09-21T12:31:49.929Z,11.57
2022-09-21T12:32:55.939Z,11.53
2022-09-21T12:34:03.542Z,11.56
2022-09-21T12:35:09.118Z,11.58
2022-09-21T12:36:18.802Z,11.69
2022-09-21T12:37:39.647Z,11.74
2022-09-21T12:38:55.106Z,11.75
2022-09-21T12:40:06.708Z,11.76
2022-09-21T12:41:18.616Z,11.65
2022-09-21T12:42:48.412Z,11.77
2022-09-21T12:43:57.398Z,11.82
2022-09-21T12:45:21.161Z,11.87
2022-09-21T12:46:32.848Z,11.93
2022-09-21T12:47:52.797Z,11.93
2022-09-21T12:49:01.146Z,11.83
2022-09-21T12:50:06.751Z,11.83
2022-09-21T12:51:16.486Z,11.94
2022-09-21T12:52:24.950Z,12.14
2022-09-21T12:53:30.900Z,12.44
2022-09-21T12:54:43.549Z,12.69
2022-09-21T12:55:58.058Z,12.78
2022-09-21T12:58:29.317Z,12.99
2022-09-21T13:01:13.935Z,12.98
2022-09-21T13:02:25.874Z,12.78
2022-09-21T13:03:34.953Z,12.73
2022-09-21T13:05:00.687Z,12.65
2022-09-21T13:06:27.691Z,12.62
2022-09-21T13:07:42.077Z,12.47
2022-09-21T13:08:46.842Z,12.41
2022-09-21T13:09:50.256Z,12.59
2022-09-21T13:11:00.980Z,12.64
2022-09-21T13:12:10.525Z,12.59
2022-09-21T13:13:28.053Z,12.54
2022-09-21T13:14:33.302Z,12.63
2022-09-21T13:15:45.042Z,12.36
2022-09-21T13:16:51.767Z,12.44
2022-09-21T13:18:05.712Z,12.64
2022-09-21T13:19:17.149Z,12.64
2022-09-21T13:20:21.216Z,12.62
2022-09-21T13:21:29.488Z,12.59
2022-09-21T13:22:36.584Z,12.65
2022-09-21T13:23:39.908Z,12.82
2022-09-21T13:24:43.768Z,12.98
2022-09-21T13:26:01.403Z,12.90
2022-09-21T13:27:03.581Z,12.85
2022-09-21T13:28:17.516Z,12.69
2022-09-21T13:29:23.126Z,12.67
2022-09-21T13:30:35.317Z,12.49
2022-09-21T13:31:59.008Z,12.59
2022-09-21T13:33:04.012Z,12.61
2022-09-21T13:34:25.128Z,12.90
2022-09-21T13:35:47.990Z,13.36
2022-09-21T13:37:12.181Z,13.70
2022-09-21T13:38:41.964Z,13.81
2022-09-21T13:40:02.327Z,13.68
2022-09-21T13:41:11.244Z,14.03
2022-09-21T13:42:34.130Z,14.37
2022-09-21T13:43:48.483Z,14.47
2022-09-21T13:44:50.487Z,14.39
2022-09-21T13:45:55.785Z,14.83
2022-09-21T13:46:58.395Z,15.10
2022-09-21T13:48:04.307Z,15.31
2022-09-21T13:49:15.760Z,15.52
2022-09-21T13:50:33.128Z,15.04
2022-09-21T13:51:37.027Z,14.61
2022-09-21T13:52:48.828Z,14.02
2022-09-21T13:53:54.399Z,14.04
2022-09-21T13:55:02.957Z,14.16
2022-09-21T13:56:11.380Z,14.21
2022-09-21T13:57:32.066Z,14.17
2022-09-21T13:58:37.681Z,14.12
2022-09-21T13:59:42.861Z,13.70
2022-09-21T14:00:58.473Z,13.38
2022-09-21T14:02:03.101Z,13.13
2022-09-21T14:03:28.542Z,13.02
2022-09-21T14:04:36.111Z,12.93
2022-09-21T14:05:44.389Z,12.86
2022-09-21T14:06:49.399Z,12.54
2022-09-21T14:08:00.769Z,12.52
2022-09-21T14:09:09.015Z,12.43
2022-09-21T14:10:18.410Z,12.62
2022-09-21T14:11:23.912Z,13.11
2022-09-21T14:12:28.925Z,13.56
2022-09-21T14:13:43.261Z,14.06
2022-09-21T14:14:49.940Z,14.52
2022-09-21T14:15:52.065Z,14.80
2022-09-21T14:16:59.927Z,14.96
2022-09-21T14:18:14.266Z,15.09
2022-09-21T14:19:22.829Z,15.09
2022-09-21T14:20:35.836Z,15.28
2022-09-21T14:21:36.616Z,15.64
2022-09-21T14:22:40.214Z,15.86
2022-09-21T14:24:03.910Z,15.96
2022-09-21T14:25:28.891Z,16.06
2022-09-21T14:26:34.110Z,15.79
2022-09-21T14:27:46.058Z,15.93
2022-09-21T14:28:50.959Z,15.70
2022-09-21T14:29:56.240Z,15.40
2022-09-21T14:31:02.024Z,15.13
2022-09-21T14:32:07.209Z,14.97
2022-09-21T14:33:22.099Z,15.05
2022-09-21T14:34:27.993Z,14.99
2022-09-21T14:35:36.665Z,14.70
2022-09-21T14:36:44.651Z,14.79
2022-09-21T14:37:50.090Z,14.82
2022-09-21T14:38:55.776Z,15.10
2022-09-21T14:40:02.351Z,15.29
2022-09-21T14:41:07.115Z,15.24
2022-09-21T14:42:18.500Z,15.22
2022-09-21T14:43:32.821Z,14.98
2022-09-21T14:44:36.805Z,14.65
2022-09-21T14:46:12.773Z,14.42
2022-09-21T14:47:31.299Z,14.42
2022-09-21T14:48:58.428Z,14.02
2022-09-21T14:50:25.716Z,14.10
2022-09-21T14:51:55.759Z,14.52
2022-09-21T14:52:59.493Z,14.73
2022-09-21T14:54:11.540Z,14.89
2022-09-21T14:55:33.914Z,15.01
2022-09-21T14:57:08.633Z,14.90
2022-09-21T14:58:20.202Z,14.93
2022-09-21T14:59:34.748Z,14.98
2022-09-21T15:00:43.167Z,15.04
2022-09-21T15:02:04.291Z,14.96
2022-09-21T15:03:26.794Z,14.78
2022-09-21T15:04:46.252Z,14.72
2022-09-21T15:06:01.142Z,15.05
2022-09-21T15:07:13.060Z,15.46